Pickwick Observed Data For Previous 48 Hours

Caption
Day and Hour Reservoir Elevation (behind dam)* Tailwater Elevation (below dam)* Average Hourly Discharge*
10/19/2018 1 AM CDT 411.26 360.82 35,568
10/19/2018 2 AM CDT 411.22 360.39 35,471
10/19/2018 3 AM CDT 411.06 360.09 35,638
10/19/2018 4 AM CDT 411.02 359.89 35,743
10/19/2018 5 AM CDT 411.02 359.80 35,714
10/19/2018 6 AM CDT 410.93 359.76 36,724
10/19/2018 7 AM CDT 410.97 360.35 48,540
10/19/2018 8 AM CDT 410.98 360.80 49,061
10/19/2018 9 AM CDT 411.01 360.99 49,047
10/19/2018 10 AM CDT 411.02 361.07 49,264
10/19/2018 11 AM CDT 411.08 361.17 49,409
10/19/2018 12 PM CDT 411.10 361.18 49,410
10/19/2018 1 PM CDT 411.06 361.32 49,465
10/19/2018 2 PM CDT 411.01 361.26 49,711
10/19/2018 3 PM CDT 411.01 361.37 49,947
10/19/2018 4 PM CDT 411.06 361.36 50,124
10/19/2018 5 PM CDT 411.04 361.34 50,073
10/19/2018 6 PM CDT 411.04 361.40 49,924
10/19/2018 7 PM CDT 411.03 361.40 50,063
10/19/2018 8 PM CDT 411.01 361.36 49,873
10/19/2018 9 PM CDT 411.02 361.36 49,943
10/19/2018 10 PM CDT 411.11 360.74 35,519
10/19/2018 11 PM CDT 411.16 360.22 35,355
10/20/2018 12 AM CDT 411.18 359.93 35,730
10/20/2018 1 AM CDT 411.18 359.37 26,748
10/20/2018 2 AM CDT 411.07 358.64 18,242
10/20/2018 3 AM CDT 411.02 358.09 17,975
10/20/2018 4 AM CDT 411.08 357.68 18,170
10/20/2018 5 AM CDT 411.16 357.43 18,411
10/20/2018 6 AM CDT 411.14 357.42 18,653
10/20/2018 7 AM CDT 411.12 357.92 28,049
10/20/2018 8 AM CDT 411.08 358.20 29,277
10/20/2018 9 AM CDT 410.95 358.80 39,176
10/20/2018 10 AM CDT 410.97 359.60 47,834
10/20/2018 11 AM CDT 411.05 360.20 48,418
10/20/2018 12 PM CDT 411.08 360.63 48,644
10/20/2018 1 PM CDT 411.07 360.82 48,672
10/20/2018 2 PM CDT 411.15 360.23 35,350
10/20/2018 3 PM CDT 411.16 359.76 35,511
10/20/2018 4 PM CDT 411.16 359.67 35,807
10/20/2018 5 PM CDT 411.10 359.73 36,715
10/20/2018 6 PM CDT 411.09 360.33 48,348
10/20/2018 7 PM CDT 411.01 360.76 49,138
10/20/2018 8 PM CDT 411.06 360.94 49,198
10/20/2018 9 PM CDT 411.15 360.08 26,625
10/20/2018 10 PM CDT 411.18 359.30 26,174
10/20/2018 11 PM CDT 411.19 358.77 26,076
10/21/2018 12 AM CDT 411.17 358.16 18,308
10/21/2018 1 AM CDT 411.14 357.84 18,196
10/21/2018 2 AM CDT 411.18 357.53 18,345
10/21/2018 3 AM CDT 411.21 357.37 18,461
10/21/2018 4 AM CDT 411.16 357.27 18,547
10/21/2018 5 AM CDT 411.13 357.46 23,002
10/21/2018 6 AM CDT 410.98 358.39 39,832
10/21/2018 7 AM CDT 411.02 359.43 47,955
10/21/2018 8 AM CDT 411.01 360.22 48,852
10/21/2018 9 AM CDT 410.99 360.68 49,073
10/21/2018 10 AM CDT 410.99 360.89 48,936

Elevations are in feet above sea level. Discharges are in cubic feet per second and are reported at the end of the hour.